sensor_id;sensor_type;location;lat;lon;timestamp;P1;durP1;ratioP1;P2;durP2;ratioP2
50056;SDS011;36875;49.468;11.200;2023-04-28T00:00:15;6.07;;;3.10;;
50056;SDS011;36875;49.468;11.200;2023-04-28T00:02:41;4.93;;;2.72;;
50056;SDS011;36875;49.468;11.200;2023-04-28T00:05:08;6.30;;;2.95;;
50056;SDS011;36875;49.468;11.200;2023-04-28T00:07:33;4.78;;;2.80;;
50056;SDS011;36875;49.468;11.200;2023-04-28T00:09:59;6.90;;;2.92;;
50056;SDS011;36875;49.468;11.200;2023-04-28T00:12:24;5.07;;;2.83;;
50056;SDS011;36875;49.468;11.200;2023-04-28T00:14:50;4.53;;;2.83;;
50056;SDS011;36875;49.468;11.200;2023-04-28T00:17:16;3.90;;;2.60;;
50056;SDS011;36875;49.468;11.200;2023-04-28T00:19:41;4.93;;;2.63;;
50056;SDS011;36875;49.468;11.200;2023-04-28T00:22:08;7.53;;;3.00;;
50056;SDS011;36875;49.468;11.200;2023-04-28T00:24:33;5.35;;;3.10;;
50056;SDS011;36875;49.468;11.200;2023-04-28T00:27:00;6.28;;;3.03;;
50056;SDS011;36875;49.468;11.200;2023-04-28T00:29:27;5.25;;;2.55;;
50056;SDS011;36875;49.468;11.200;2023-04-28T00:31:52;4.80;;;2.58;;
50056;SDS011;36875;49.468;11.200;2023-04-28T00:34:18;6.30;;;2.65;;
50056;SDS011;36875;49.468;11.200;2023-04-28T00:36:43;4.72;;;3.20;;
50056;SDS011;36875;49.468;11.200;2023-04-28T00:39:10;3.63;;;2.63;;
50056;SDS011;36875;49.468;11.200;2023-04-28T00:41:36;4.43;;;2.55;;
50056;SDS011;36875;49.468;11.200;2023-04-28T00:44:02;3.50;;;2.53;;
50056;SDS011;36875;49.468;11.200;2023-04-28T00:46:28;4.07;;;2.58;;
50056;SDS011;36875;49.468;11.200;2023-04-28T00:48:56;3.97;;;2.70;;
50056;SDS011;36875;49.468;11.200;2023-04-28T00:51:22;5.97;;;2.72;;
50056;SDS011;36875;49.468;11.200;2023-04-28T00:53:48;4.10;;;2.65;;
50056;SDS011;36875;49.468;11.200;2023-04-28T00:56:16;4.53;;;2.55;;
50056;SDS011;36875;49.468;11.200;2023-04-28T00:58:41;5.10;;;2.53;;
50056;SDS011;36875;49.468;11.200;2023-04-28T01:01:07;4.15;;;2.38;;
50056;SDS011;36875;49.468;11.200;2023-04-28T01:03:34;3.75;;;2.35;;
50056;SDS011;36875;49.468;11.200;2023-04-28T01:06:02;4.15;;;2.63;;
50056;SDS011;36875;49.468;11.200;2023-04-28T01:11:02;6.85;;;2.55;;
50056;SDS011;36875;49.468;11.200;2023-04-28T01:13:29;5.57;;;2.70;;
50056;SDS011;36875;49.468;11.200;2023-04-28T01:15:55;3.60;;;2.28;;
50056;SDS011;36875;49.468;11.200;2023-04-28T01:18:21;4.45;;;2.58;;
50056;SDS011;36875;49.468;11.200;2023-04-28T01:20:47;3.65;;;2.17;;
50056;SDS011;36875;49.468;11.200;2023-04-28T01:23:12;4.75;;;2.40;;
50056;SDS011;36875;49.468;11.200;2023-04-28T01:25:40;6.10;;;2.55;;
50056;SDS011;36875;49.468;11.200;2023-04-28T01:28:07;3.75;;;2.40;;
50056;SDS011;36875;49.468;11.200;2023-04-28T01:30:32;3.92;;;2.30;;
50056;SDS011;36875;49.468;11.200;2023-04-28T01:32:59;4.85;;;2.42;;
50056;SDS011;36875;49.468;11.200;2023-04-28T01:35:27;4.82;;;2.40;;
50056;SDS011;36875;49.468;11.200;2023-04-28T01:37:53;4.18;;;2.53;;
50056;SDS011;36875;49.468;11.200;2023-04-28T01:40:18;4.05;;;2.17;;
50056;SDS011;36875;49.468;11.200;2023-04-28T01:42:45;4.47;;;2.30;;
50056;SDS011;36875;49.468;11.200;2023-04-28T01:45:10;3.97;;;2.38;;
50056;SDS011;36875;49.468;11.200;2023-04-28T01:47:36;4.35;;;2.17;;
50056;SDS011;36875;49.468;11.200;2023-04-28T01:50:02;3.20;;;2.17;;
50056;SDS011;36875;49.468;11.200;2023-04-28T01:52:27;3.38;;;2.25;;
50056;SDS011;36875;49.468;11.200;2023-04-28T01:54:53;3.63;;;2.25;;
50056;SDS011;36875;49.468;11.200;2023-04-28T01:57:18;4.97;;;2.17;;
50056;SDS011;36875;49.468;11.200;2023-04-28T01:59:46;5.03;;;2.03;;
50056;SDS011;36875;49.468;11.200;2023-04-28T02:02:11;3.45;;;2.10;;
50056;SDS011;36875;49.468;11.200;2023-04-28T02:04:37;4.25;;;2.20;;
50056;SDS011;36875;49.468;11.200;2023-04-28T02:07:03;3.35;;;1.92;;
50056;SDS011;36875;49.468;11.200;2023-04-28T02:09:28;4.65;;;2.58;;
50056;SDS011;36875;49.468;11.200;2023-04-28T02:11:54;3.88;;;2.60;;
50056;SDS011;36875;49.468;11.200;2023-04-28T02:14:19;3.80;;;2.40;;
50056;SDS011;36875;49.468;11.200;2023-04-28T02:16:46;3.03;;;2.00;;
50056;SDS011;36875;49.468;11.200;2023-04-28T02:19:12;3.60;;;2.20;;
50056;SDS011;36875;49.468;11.200;2023-04-28T02:21:37;3.70;;;2.13;;
50056;SDS011;36875;49.468;11.200;2023-04-28T02:24:03;5.30;;;2.40;;
50056;SDS011;36875;49.468;11.200;2023-04-28T02:26:29;3.58;;;2.25;;
50056;SDS011;36875;49.468;11.200;2023-04-28T02:28:54;5.53;;;2.33;;
50056;SDS011;36875;49.468;11.200;2023-04-28T02:31:20;4.22;;;2.50;;
50056;SDS011;36875;49.468;11.200;2023-04-28T02:33:50;3.70;;;2.03;;
50056;SDS011;36875;49.468;11.200;2023-04-28T02:36:15;3.75;;;2.10;;
50056;SDS011;36875;49.468;11.200;2023-04-28T02:38:41;3.58;;;2.20;;
50056;SDS011;36875;49.468;11.200;2023-04-28T02:41:07;4.63;;;2.20;;
50056;SDS011;36875;49.468;11.200;2023-04-28T02:43:35;3.58;;;2.30;;
50056;SDS011;36875;49.468;11.200;2023-04-28T02:46:01;3.65;;;2.10;;
50056;SDS011;36875;49.468;11.200;2023-04-28T02:48:27;3.08;;;2.17;;
50056;SDS011;36875;49.468;11.200;2023-04-28T02:50:54;4.57;;;2.08;;
50056;SDS011;36875;49.468;11.200;2023-04-28T02:53:20;3.45;;;2.00;;
50056;SDS011;36875;49.468;11.200;2023-04-28T02:55:46;3.55;;;2.53;;
50056;SDS011;36875;49.468;11.200;2023-04-28T02:58:11;3.92;;;2.40;;
50056;SDS011;36875;49.468;11.200;2023-04-28T03:00:37;3.40;;;1.80;;
50056;SDS011;36875;49.468;11.200;2023-04-28T03:03:02;4.63;;;2.13;;
50056;SDS011;36875;49.468;11.200;2023-04-28T03:05:28;4.47;;;2.30;;
50056;SDS011;36875;49.468;11.200;2023-04-28T03:07:55;2.95;;;1.85;;
50056;SDS011;36875;49.468;11.200;2023-04-28T03:10:20;3.95;;;2.15;;
50056;SDS011;36875;49.468;11.200;2023-04-28T03:12:48;4.15;;;2.30;;
50056;SDS011;36875;49.468;11.200;2023-04-28T03:15:14;2.50;;;1.90;;
50056;SDS011;36875;49.468;11.200;2023-04-28T03:17:40;4.38;;;2.17;;
50056;SDS011;36875;49.468;11.200;2023-04-28T03:20:07;3.58;;;2.03;;
50056;SDS011;36875;49.468;11.200;2023-04-28T03:22:33;3.10;;;2.10;;
50056;SDS011;36875;49.468;11.200;2023-04-28T03:25:01;4.15;;;2.08;;
50056;SDS011;36875;49.468;11.200;2023-04-28T03:27:27;3.47;;;2.10;;
50056;SDS011;36875;49.468;11.200;2023-04-28T03:29:53;3.33;;;2.13;;
50056;SDS011;36875;49.468;11.200;2023-04-28T03:32:18;3.78;;;1.90;;
50056;SDS011;36875;49.468;11.200;2023-04-28T03:34:44;3.47;;;1.83;;
50056;SDS011;36875;49.468;11.200;2023-04-28T03:37:09;3.17;;;1.77;;
50056;SDS011;36875;49.468;11.200;2023-04-28T03:39:35;3.30;;;2.08;;
50056;SDS011;36875;49.468;11.200;2023-04-28T03:42:02;3.42;;;1.90;;
50056;SDS011;36875;49.468;11.200;2023-04-28T03:44:27;3.33;;;2.00;;
50056;SDS011;36875;49.468;11.200;2023-04-28T03:46:53;3.17;;;2.13;;
50056;SDS011;36875;49.468;11.200;2023-04-28T03:49:18;4.25;;;2.28;;
50056;SDS011;36875;49.468;11.200;2023-04-28T03:51:44;3.33;;;2.20;;
50056;SDS011;36875;49.468;11.200;2023-04-28T03:54:10;3.55;;;1.90;;
50056;SDS011;36875;49.468;11.200;2023-04-28T03:56:35;3.50;;;2.03;;
50056;SDS011;36875;49.468;11.200;2023-04-28T03:59:02;2.72;;;1.88;;
50056;SDS011;36875;49.468;11.200;2023-04-28T04:01:36;3.05;;;1.85;;
50056;SDS011;36875;49.468;11.200;2023-04-28T04:04:01;3.78;;;2.08;;
50056;SDS011;36875;49.468;11.200;2023-04-28T04:06:27;4.38;;;2.15;;
50056;SDS011;36875;49.468;11.200;2023-04-28T04:08:52;3.72;;;2.33;;
50056;SDS011;36875;49.468;11.200;2023-04-28T04:11:18;2.60;;;1.77;;
50056;SDS011;36875;49.468;11.200;2023-04-28T04:13:44;3.10;;;1.85;;
50056;SDS011;36875;49.468;11.200;2023-04-28T04:16:11;4.40;;;2.20;;
50056;SDS011;36875;49.468;11.200;2023-04-28T04:18:39;2.95;;;1.80;;
50056;SDS011;36875;49.468;11.200;2023-04-28T04:21:05;3.35;;;1.95;;
50056;SDS011;36875;49.468;11.200;2023-04-28T04:23:30;3.10;;;1.80;;
50056;SDS011;36875;49.468;11.200;2023-04-28T04:25:56;3.20;;;2.13;;
50056;SDS011;36875;49.468;11.200;2023-04-28T04:28:21;3.75;;;2.10;;
50056;SDS011;36875;49.468;11.200;2023-04-28T04:30:47;4.00;;;2.10;;
50056;SDS011;36875;49.468;11.200;2023-04-28T04:33:14;3.50;;;1.70;;
50056;SDS011;36875;49.468;11.200;2023-04-28T04:35:39;3.03;;;1.80;;
50056;SDS011;36875;49.468;11.200;2023-04-28T04:38:05;3.58;;;2.25;;
50056;SDS011;36875;49.468;11.200;2023-04-28T04:40:31;4.22;;;2.03;;
50056;SDS011;36875;49.468;11.200;2023-04-28T04:42:57;3.83;;;1.80;;
50056;SDS011;36875;49.468;11.200;2023-04-28T04:45:22;2.80;;;1.90;;
50056;SDS011;36875;49.468;11.200;2023-04-28T04:47:48;3.70;;;2.00;;
50056;SDS011;36875;49.468;11.200;2023-04-28T04:50:15;2.88;;;1.80;;
50056;SDS011;36875;49.468;11.200;2023-04-28T04:52:41;3.80;;;2.08;;
50056;SDS011;36875;49.468;11.200;2023-04-28T04:55:07;3.13;;;2.00;;
50056;SDS011;36875;49.468;11.200;2023-04-28T04:57:35;2.88;;;1.80;;
50056;SDS011;36875;49.468;11.200;2023-04-28T05:00:00;2.90;;;1.70;;
50056;SDS011;36875;49.468;11.200;2023-04-28T05:02:26;4.25;;;2.05;;
50056;SDS011;36875;49.468;11.200;2023-04-28T05:04:51;3.67;;;2.00;;
50056;SDS011;36875;49.468;11.200;2023-04-28T05:07:18;3.20;;;1.70;;
50056;SDS011;36875;49.468;11.200;2023-04-28T05:09:44;2.35;;;1.70;;
50056;SDS011;36875;49.468;11.200;2023-04-28T05:12:09;3.08;;;1.80;;
50056;SDS011;36875;49.468;11.200;2023-04-28T05:14:34;3.08;;;1.90;;
50056;SDS011;36875;49.468;11.200;2023-04-28T05:17:00;4.55;;;1.90;;
50056;SDS011;36875;49.468;11.200;2023-04-28T05:19:26;3.58;;;2.10;;
50056;SDS011;36875;49.468;11.200;2023-04-28T05:21:52;2.67;;;1.52;;
50056;SDS011;36875;49.468;11.200;2023-04-28T05:24:21;4.85;;;1.90;;
50056;SDS011;36875;49.468;11.200;2023-04-28T05:26:49;4.50;;;1.80;;
50056;SDS011;36875;49.468;11.200;2023-04-28T05:29:15;4.18;;;1.90;;
50056;SDS011;36875;49.468;11.200;2023-04-28T05:31:41;3.50;;;2.00;;
50056;SDS011;36875;49.468;11.200;2023-04-28T05:34:06;3.85;;;1.80;;
50056;SDS011;36875;49.468;11.200;2023-04-28T05:36:32;4.28;;;1.85;;
50056;SDS011;36875;49.468;11.200;2023-04-28T05:38:57;3.47;;;1.73;;
50056;SDS011;36875;49.468;11.200;2023-04-28T05:41:24;4.07;;;1.90;;
50056;SDS011;36875;49.468;11.200;2023-04-28T05:43:50;6.93;;;1.88;;
50056;SDS011;36875;49.468;11.200;2023-04-28T05:46:15;4.32;;;1.88;;
50056;SDS011;36875;49.468;11.200;2023-04-28T05:48:41;5.18;;;2.03;;
50056;SDS011;36875;49.468;11.200;2023-04-28T05:51:07;4.38;;;2.00;;
50056;SDS011;36875;49.468;11.200;2023-04-28T05:53:32;3.47;;;1.80;;
50056;SDS011;36875;49.468;11.200;2023-04-28T05:55:57;4.97;;;1.90;;
50056;SDS011;36875;49.468;11.200;2023-04-28T05:58:24;4.60;;;2.10;;
50056;SDS011;36875;49.468;11.200;2023-04-28T06:00:50;5.20;;;1.92;;
50056;SDS011;36875;49.468;11.200;2023-04-28T06:03:15;5.03;;;1.73;;
50056;SDS011;36875;49.468;11.200;2023-04-28T06:05:42;9.85;;;2.78;;
50056;SDS011;36875;49.468;11.200;2023-04-28T06:08:08;4.15;;;1.90;;
50056;SDS011;36875;49.468;11.200;2023-04-28T06:10:34;9.77;;;2.15;;
50056;SDS011;36875;49.468;11.200;2023-04-28T06:12:59;6.43;;;2.00;;
50056;SDS011;36875;49.468;11.200;2023-04-28T06:15:27;11.32;;;2.53;;
50056;SDS011;36875;49.468;11.200;2023-04-28T06:17:53;6.32;;;2.63;;
50056;SDS011;36875;49.468;11.200;2023-04-28T06:20:19;7.90;;;2.42;;
50056;SDS011;36875;49.468;11.200;2023-04-28T06:22:44;5.95;;;2.50;;
50056;SDS011;36875;49.468;11.200;2023-04-28T06:25:10;8.85;;;2.42;;
50056;SDS011;36875;49.468;11.200;2023-04-28T06:27:35;6.35;;;2.40;;
50056;SDS011;36875;49.468;11.200;2023-04-28T06:30:01;8.48;;;2.80;;
50056;SDS011;36875;49.468;11.200;2023-04-28T06:32:28;4.05;;;2.30;;
50056;SDS011;36875;49.468;11.200;2023-04-28T06:34:53;5.70;;;2.35;;
50056;SDS011;36875;49.468;11.200;2023-04-28T06:37:19;6.55;;;2.53;;
50056;SDS011;36875;49.468;11.200;2023-04-28T06:39:44;6.75;;;2.22;;
50056;SDS011;36875;49.468;11.200;2023-04-28T06:42:10;5.35;;;2.20;;
50056;SDS011;36875;49.468;11.200;2023-04-28T06:44:35;3.95;;;2.10;;
50056;SDS011;36875;49.468;11.200;2023-04-28T06:47:01;6.95;;;2.30;;
50056;SDS011;36875;49.468;11.200;2023-04-28T06:49:28;4.57;;;1.90;;
50056;SDS011;36875;49.468;11.200;2023-04-28T06:51:53;6.55;;;2.30;;
50056;SDS011;36875;49.468;11.200;2023-04-28T06:54:19;7.40;;;2.85;;
50056;SDS011;36875;49.468;11.200;2023-04-28T06:56:44;8.10;;;2.38;;
50056;SDS011;36875;49.468;11.200;2023-04-28T06:59:10;6.97;;;2.30;;
50056;SDS011;36875;49.468;11.200;2023-04-28T07:01:36;5.75;;;2.25;;
50056;SDS011;36875;49.468;11.200;2023-04-28T07:04:01;4.32;;;1.77;;
50056;SDS011;36875;49.468;11.200;2023-04-28T07:06:28;3.30;;;1.92;;
50056;SDS011;36875;49.468;11.200;2023-04-28T07:08:55;7.10;;;2.42;;
50056;SDS011;36875;49.468;11.200;2023-04-28T07:11:23;5.90;;;2.10;;
50056;SDS011;36875;49.468;11.200;2023-04-28T07:13:49;5.05;;;2.30;;
50056;SDS011;36875;49.468;11.200;2023-04-28T07:16:15;4.53;;;2.00;;
50056;SDS011;36875;49.468;11.200;2023-04-28T07:18:41;5.63;;;2.17;;
50056;SDS011;36875;49.468;11.200;2023-04-28T07:21:07;6.28;;;2.60;;
50056;SDS011;36875;49.468;11.200;2023-04-28T07:23:33;4.45;;;2.30;;
50056;SDS011;36875;49.468;11.200;2023-04-28T07:25:59;4.18;;;2.20;;
50056;SDS011;36875;49.468;11.200;2023-04-28T07:28:25;7.70;;;2.33;;
50056;SDS011;36875;49.468;11.200;2023-04-28T07:30:50;19.88;;;3.15;;
50056;SDS011;36875;49.468;11.200;2023-04-28T07:33:16;7.75;;;2.25;;
50056;SDS011;36875;49.468;11.200;2023-04-28T07:35:44;8.68;;;2.55;;
50056;SDS011;36875;49.468;11.200;2023-04-28T07:38:10;9.30;;;2.20;;
50056;SDS011;36875;49.468;11.200;2023-04-28T07:40:37;5.97;;;2.50;;
50056;SDS011;36875;49.468;11.200;2023-04-28T07:43:03;8.45;;;2.78;;
50056;SDS011;36875;49.468;11.200;2023-04-28T07:45:28;6.82;;;2.33;;
50056;SDS011;36875;49.468;11.200;2023-04-28T07:47:54;7.43;;;2.33;;
50056;SDS011;36875;49.468;11.200;2023-04-28T07:50:19;6.30;;;2.13;;
50056;SDS011;36875;49.468;11.200;2023-04-28T07:52:45;6.97;;;2.30;;
50056;SDS011;36875;49.468;11.200;2023-04-28T07:55:11;4.35;;;2.30;;
50056;SDS011;36875;49.468;11.200;2023-04-28T07:57:37;6.00;;;2.40;;
50056;SDS011;36875;49.468;11.200;2023-04-28T08:00:04;9.07;;;2.35;;
50056;SDS011;36875;49.468;11.200;2023-04-28T08:02:30;6.43;;;2.30;;
50056;SDS011;36875;49.468;11.200;2023-04-28T08:04:55;7.15;;;2.70;;
50056;SDS011;36875;49.468;11.200;2023-04-28T08:07:21;5.85;;;2.50;;
50056;SDS011;36875;49.468;11.200;2023-04-28T08:09:46;11.35;;;2.47;;
50056;SDS011;36875;49.468;11.200;2023-04-28T08:12:12;7.68;;;2.47;;
50056;SDS011;36875;49.468;11.200;2023-04-28T08:14:40;8.52;;;2.55;;
50056;SDS011;36875;49.468;11.200;2023-04-28T08:17:05;10.85;;;2.58;;
50056;SDS011;36875;49.468;11.200;2023-04-28T08:19:31;7.72;;;2.50;;
50056;SDS011;36875;49.468;11.200;2023-04-28T08:21:57;10.90;;;2.72;;
50056;SDS011;36875;49.468;11.200;2023-04-28T08:24:24;6.15;;;2.63;;
50056;SDS011;36875;49.468;11.200;2023-04-28T08:26:49;10.00;;;3.22;;
50056;SDS011;36875;49.468;11.200;2023-04-28T08:29:15;9.23;;;3.00;;
50056;SDS011;36875;49.468;11.200;2023-04-28T08:31:42;8.18;;;2.72;;
50056;SDS011;36875;49.468;11.200;2023-04-28T08:34:08;6.05;;;2.40;;
50056;SDS011;36875;49.468;11.200;2023-04-28T08:36:33;9.07;;;3.35;;
50056;SDS011;36875;49.468;11.200;2023-04-28T08:38:59;8.45;;;2.90;;
50056;SDS011;36875;49.468;11.200;2023-04-28T08:41:28;8.30;;;3.33;;
50056;SDS011;36875;49.468;11.200;2023-04-28T08:43:57;8.27;;;2.85;;
50056;SDS011;36875;49.468;11.200;2023-04-28T08:46:22;6.20;;;2.67;;
50056;SDS011;36875;49.468;11.200;2023-04-28T08:48:52;6.20;;;2.65;;
50056;SDS011;36875;49.468;11.200;2023-04-28T08:51:24;8.07;;;2.60;;
50056;SDS011;36875;49.468;11.200;2023-04-28T08:53:54;6.60;;;2.88;;
50056;SDS011;36875;49.468;11.200;2023-04-28T08:56:23;8.75;;;2.67;;
50056;SDS011;36875;49.468;11.200;2023-04-28T08:58:51;7.68;;;2.60;;
50056;SDS011;36875;49.468;11.200;2023-04-28T09:01:17;9.93;;;2.78;;
50056;SDS011;36875;49.468;11.200;2023-04-28T09:03:43;8.20;;;2.60;;
50056;SDS011;36875;49.468;11.200;2023-04-28T09:06:10;8.20;;;2.90;;
50056;SDS011;36875;49.468;11.200;2023-04-28T09:08:35;5.70;;;2.38;;
50056;SDS011;36875;49.468;11.200;2023-04-28T09:11:04;7.93;;;2.70;;
50056;SDS011;36875;49.468;11.200;2023-04-28T09:13:31;9.90;;;2.97;;
50056;SDS011;36875;49.468;11.200;2023-04-28T09:15:58;6.53;;;2.28;;
50056;SDS011;36875;49.468;11.200;2023-04-28T09:18:23;5.65;;;2.55;;
50056;SDS011;36875;49.468;11.200;2023-04-28T09:20:49;6.22;;;2.25;;
50056;SDS011;36875;49.468;11.200;2023-04-28T09:23:17;10.20;;;3.05;;
50056;SDS011;36875;49.468;11.200;2023-04-28T09:25:57;8.98;;;2.67;;
50056;SDS011;36875;49.468;11.200;2023-04-28T09:28:24;7.90;;;2.47;;
50056;SDS011;36875;49.468;11.200;2023-04-28T09:30:50;20.23;;;9.60;;
50056;SDS011;36875;49.468;11.200;2023-04-28T09:33:15;110.32;;;49.63;;
50056;SDS011;36875;49.468;11.200;2023-04-28T09:35:41;293.02;;;136.93;;
50056;SDS011;36875;49.468;11.200;2023-04-28T09:38:09;407.38;;;206.90;;
50056;SDS011;36875;49.468;11.200;2023-04-28T09:40:49;410.95;;;210.82;;
50056;SDS011;36875;49.468;11.200;2023-04-28T09:43:22;393.83;;;203.57;;
50056;SDS011;36875;49.468;11.200;2023-04-28T09:45:49;329.75;;;157.80;;
50056;SDS011;36875;49.468;11.200;2023-04-28T09:48:15;259.85;;;123.25;;
50056;SDS011;36875;49.468;11.200;2023-04-28T09:50:41;239.10;;;113.90;;
50056;SDS011;36875;49.468;11.200;2023-04-28T09:53:06;233.27;;;106.43;;
50056;SDS011;36875;49.468;11.200;2023-04-28T09:55:36;212.05;;;98.72;;
50056;SDS011;36875;49.468;11.200;2023-04-28T09:58:09;200.63;;;97.22;;
50056;SDS011;36875;49.468;11.200;2023-04-28T10:00:37;192.80;;;91.70;;
50056;SDS011;36875;49.468;11.200;2023-04-28T10:03:04;162.65;;;79.57;;
50056;SDS011;36875;49.468;11.200;2023-04-28T10:05:32;155.35;;;70.20;;
50056;SDS011;36875;49.468;11.200;2023-04-28T10:07:59;147.68;;;66.25;;
50056;SDS011;36875;49.468;11.200;2023-04-28T10:10:25;142.15;;;64.05;;
50056;SDS011;36875;49.468;11.200;2023-04-28T10:12:53;142.82;;;68.72;;
50056;SDS011;36875;49.468;11.200;2023-04-28T10:15:20;134.68;;;61.13;;
50056;SDS011;36875;49.468;11.200;2023-04-28T10:17:47;126.82;;;58.00;;
50056;SDS011;36875;49.468;11.200;2023-04-28T10:20:14;118.18;;;55.90;;
50056;SDS011;36875;49.468;11.200;2023-04-28T10:22:46;124.38;;;55.33;;
50056;SDS011;36875;49.468;11.200;2023-04-28T10:25:25;124.38;;;54.67;;
50056;SDS011;36875;49.468;11.200;2023-04-28T10:27:51;118.68;;;52.22;;
50056;SDS011;36875;49.468;11.200;2023-04-28T10:30:18;110.28;;;50.47;;
50056;SDS011;36875;49.468;11.200;2023-04-28T10:32:46;107.68;;;48.85;;
50056;SDS011;36875;49.468;11.200;2023-04-28T10:38:07;100.85;;;46.22;;
50056;SDS011;36875;49.468;11.200;2023-04-28T10:40:34;104.45;;;46.70;;
50056;SDS011;36875;49.468;11.200;2023-04-28T10:43:00;109.95;;;48.47;;
50056;SDS011;36875;49.468;11.200;2023-04-28T10:51:31;100.30;;;45.05;;
50056;SDS011;36875;49.468;11.200;2023-04-28T10:59:45;64.63;;;30.80;;
50056;SDS011;36875;49.468;11.200;2023-04-28T11:05:15;45.45;;;21.02;;
50056;SDS011;36875;49.468;11.200;2023-04-28T11:13:40;24.92;;;10.65;;
50056;SDS011;36875;49.468;11.200;2023-04-28T11:16:06;19.67;;;9.48;;
50056;SDS011;36875;49.468;11.200;2023-04-28T11:18:32;15.68;;;8.20;;
50056;SDS011;36875;49.468;11.200;2023-04-28T11:21:13;16.20;;;7.72;;
50056;SDS011;36875;49.468;11.200;2023-04-28T11:23:39;15.80;;;7.38;;
50056;SDS011;36875;49.468;11.200;2023-04-28T11:26:05;15.82;;;6.75;;
50056;SDS011;36875;49.468;11.200;2023-04-28T11:28:32;19.52;;;8.82;;
50056;SDS011;36875;49.468;11.200;2023-04-28T11:31:09;25.17;;;9.73;;
50056;SDS011;36875;49.468;11.200;2023-04-28T11:33:35;22.95;;;11.05;;
50056;SDS011;36875;49.468;11.200;2023-04-28T11:36:02;24.13;;;11.32;;
50056;SDS011;36875;49.468;11.200;2023-04-28T11:38:28;18.98;;;8.65;;
50056;SDS011;36875;49.468;11.200;2023-04-28T11:40:57;17.02;;;7.60;;
50056;SDS011;36875;49.468;11.200;2023-04-28T11:43:27;14.75;;;7.40;;
50056;SDS011;36875;49.468;11.200;2023-04-28T11:45:54;14.13;;;6.47;;
50056;SDS011;36875;49.468;11.200;2023-04-28T11:48:21;13.52;;;5.93;;
50056;SDS011;36875;49.468;11.200;2023-04-28T11:50:47;10.80;;;5.38;;
50056;SDS011;36875;49.468;11.200;2023-04-28T11:53:12;8.50;;;4.43;;
50056;SDS011;36875;49.468;11.200;2023-04-28T11:55:38;11.50;;;4.63;;
50056;SDS011;36875;49.468;11.200;2023-04-28T11:58:16;9.23;;;4.60;;
50056;SDS011;36875;49.468;11.200;2023-04-28T12:00:42;8.13;;;4.50;;
50056;SDS011;36875;49.468;11.200;2023-04-28T12:03:10;7.28;;;3.60;;
50056;SDS011;36875;49.468;11.200;2023-04-28T12:05:42;6.30;;;3.45;;
50056;SDS011;36875;49.468;11.200;2023-04-28T12:08:08;8.43;;;3.92;;
50056;SDS011;36875;49.468;11.200;2023-04-28T12:10:34;10.65;;;4.43;;
50056;SDS011;36875;49.468;11.200;2023-04-28T12:13:13;8.85;;;4.68;;
50056;SDS011;36875;49.468;11.200;2023-04-28T12:15:40;12.77;;;5.43;;
50056;SDS011;36875;49.468;11.200;2023-04-28T12:18:09;14.60;;;5.80;;
50056;SDS011;36875;49.468;11.200;2023-04-28T12:20:36;10.85;;;6.10;;
50056;SDS011;36875;49.468;11.200;2023-04-28T12:23:03;11.48;;;5.80;;
50056;SDS011;36875;49.468;11.200;2023-04-28T12:25:29;13.55;;;5.93;;
50056;SDS011;36875;49.468;11.200;2023-04-28T12:27:58;14.98;;;6.03;;
50056;SDS011;36875;49.468;11.200;2023-04-28T12:30:27;15.70;;;5.70;;
50056;SDS011;36875;49.468;11.200;2023-04-28T12:32:54;12.25;;;5.43;;
50056;SDS011;36875;49.468;11.200;2023-04-28T12:35:21;11.00;;;4.72;;
50056;SDS011;36875;49.468;11.200;2023-04-28T12:37:48;13.48;;;5.38;;
50056;SDS011;36875;49.468;11.200;2023-04-28T12:40:14;11.20;;;5.05;;
50056;SDS011;36875;49.468;11.200;2023-04-28T12:42:39;17.77;;;7.80;;
50056;SDS011;36875;49.468;11.200;2023-04-28T12:45:05;15.10;;;5.88;;
50056;SDS011;36875;49.468;11.200;2023-04-28T12:47:32;11.07;;;5.72;;
50056;SDS011;36875;49.468;11.200;2023-04-28T12:49:58;14.20;;;6.03;;
50056;SDS011;36875;49.468;11.200;2023-04-28T12:52:25;15.80;;;7.05;;
50056;SDS011;36875;49.468;11.200;2023-04-28T12:54:50;11.68;;;5.72;;
50056;SDS011;36875;49.468;11.200;2023-04-28T12:57:16;17.38;;;6.43;;
50056;SDS011;36875;49.468;11.200;2023-04-28T12:59:42;18.10;;;6.40;;
50056;SDS011;36875;49.468;11.200;2023-04-28T13:02:09;15.88;;;6.35;;
50056;SDS011;36875;49.468;11.200;2023-04-28T13:04:35;11.95;;;5.85;;
50056;SDS011;36875;49.468;11.200;2023-04-28T13:07:03;11.88;;;6.15;;
50056;SDS011;36875;49.468;11.200;2023-04-28T13:09:32;17.13;;;6.30;;
50056;SDS011;36875;49.468;11.200;2023-04-28T13:11:58;14.30;;;5.65;;
50056;SDS011;36875;49.468;11.200;2023-04-28T13:14:24;14.32;;;6.25;;
50056;SDS011;36875;49.468;11.200;2023-04-28T13:16:50;14.45;;;6.13;;
50056;SDS011;36875;49.468;11.200;2023-04-28T13:19:16;16.92;;;6.07;;
50056;SDS011;36875;49.468;11.200;2023-04-28T13:21:42;12.23;;;5.90;;
50056;SDS011;36875;49.468;11.200;2023-04-28T13:24:08;11.85;;;5.57;;
50056;SDS011;36875;49.468;11.200;2023-04-28T13:26:35;11.68;;;5.85;;
50056;SDS011;36875;49.468;11.200;2023-04-28T13:29:04;11.88;;;5.95;;
50056;SDS011;36875;49.468;11.200;2023-04-28T13:31:32;14.82;;;6.75;;
50056;SDS011;36875;49.468;11.200;2023-04-28T13:33:58;14.77;;;6.22;;
50056;SDS011;36875;49.468;11.200;2023-04-28T13:36:26;13.10;;;5.68;;
50056;SDS011;36875;49.468;11.200;2023-04-28T13:38:53;12.63;;;5.68;;
50056;SDS011;36875;49.468;11.200;2023-04-28T13:41:19;11.95;;;5.35;;
50056;SDS011;36875;49.468;11.200;2023-04-28T13:43:46;12.90;;;5.80;;
50056;SDS011;36875;49.468;11.200;2023-04-28T13:46:12;12.98;;;5.88;;
50056;SDS011;36875;49.468;11.200;2023-04-28T13:48:38;15.70;;;5.93;;
50056;SDS011;36875;49.468;11.200;2023-04-28T13:51:04;15.15;;;6.22;;
50056;SDS011;36875;49.468;11.200;2023-04-28T13:53:31;14.80;;;5.53;;
50056;SDS011;36875;49.468;11.200;2023-04-28T13:55:57;12.70;;;5.53;;
50056;SDS011;36875;49.468;11.200;2023-04-28T13:58:23;13.18;;;5.13;;
50056;SDS011;36875;49.468;11.200;2023-04-28T14:00:50;12.38;;;5.63;;
50056;SDS011;36875;49.468;11.200;2023-04-28T14:03:16;11.80;;;5.85;;
50056;SDS011;36875;49.468;11.200;2023-04-28T14:05:43;13.05;;;5.20;;
50056;SDS011;36875;49.468;11.200;2023-04-28T14:08:08;12.48;;;5.50;;
50056;SDS011;36875;49.468;11.200;2023-04-28T14:10:34;10.82;;;5.22;;
50056;SDS011;36875;49.468;11.200;2023-04-28T14:13:00;15.98;;;5.18;;
50056;SDS011;36875;49.468;11.200;2023-04-28T14:15:25;12.60;;;4.13;;
50056;SDS011;36875;49.468;11.200;2023-04-28T14:17:53;10.20;;;3.80;;
50056;SDS011;36875;49.468;11.200;2023-04-28T14:20:18;7.00;;;3.13;;
50056;SDS011;36875;49.468;11.200;2023-04-28T14:22:44;6.28;;;3.13;;
50056;SDS011;36875;49.468;11.200;2023-04-28T14:25:09;7.93;;;2.70;;
50056;SDS011;36875;49.468;11.200;2023-04-28T14:27:35;4.50;;;2.50;;
50056;SDS011;36875;49.468;11.200;2023-04-28T14:30:01;4.25;;;2.97;;
50056;SDS011;36875;49.468;11.200;2023-04-28T14:32:26;7.95;;;3.22;;
50056;SDS011;36875;49.468;11.200;2023-04-28T14:34:53;5.60;;;3.03;;
50056;SDS011;36875;49.468;11.200;2023-04-28T14:37:20;5.78;;;2.42;;
50056;SDS011;36875;49.468;11.200;2023-04-28T14:39:45;4.90;;;2.58;;
50056;SDS011;36875;49.468;11.200;2023-04-28T14:42:11;5.45;;;2.63;;
50056;SDS011;36875;49.468;11.200;2023-04-28T14:44:36;4.32;;;1.98;;
50056;SDS011;36875;49.468;11.200;2023-04-28T14:47:02;4.60;;;2.25;;
50056;SDS011;36875;49.468;11.200;2023-04-28T14:49:28;5.82;;;2.40;;